Time;durP1;ratioP1;P1;durP2;ratioP2;P2;SDS_P1;SDS_P2;PMS_P1;PMS_P2;Temp;Humidity;BMP_temperature;BMP_pressure;BME280_temperature;BME280_humidity;BME280_pressure;Samples;Min_cycle;Max_cycle;Signal;HPM_P1;HPM_P2
2021/03/21 00:02:07;;;;;;;23.98;3.08;;;;;;;4.50;74.46;99575.63;5106093;28;20049;-66
2021/03/21 00:04:32;;;;;;;17.33;2.53;;;;;;;4.45;74.58;99571.34;5105832;28;20516;-65
2021/03/21 00:06:58;;;;;;;11.35;2.45;;;;;;;4.44;74.68;99584.19;5105907;28;20034;-66
2021/03/21 00:09:23;;;;;;;18.85;3.10;;;;;;;4.37;74.88;99591.03;5121311;28;20472;-65
2021/03/21 00:11:48;;;;;;;14.02;3.20;;;;;;;4.39;74.87;99597.03;5105846;28;20153;-65
2021/03/21 00:14:14;;;;;;;19.25;3.47;;;;;;;4.36;75.00;99584.16;5105466;28;20024;-66
2021/03/21 00:16:39;;;;;;;19.35;4.45;;;;;;;4.36;75.04;99586.72;5105783;28;20084;-66
2021/03/21 00:19:06;;;;;;;15.90;2.78;;;;;;;4.38;75.08;99579.03;5105400;28;20035;-65
2021/03/21 00:21:31;;;;;;;19.55;3.20;;;;;;;4.38;75.03;99582.44;5105518;28;20028;-66
2021/03/21 00:23:57;;;;;;;18.38;3.78;;;;;;;4.37;75.03;99588.44;5105579;28;20031;-66
2021/03/21 00:26:22;;;;;;;13.95;2.45;;;;;;;4.37;74.81;99567.03;5105644;28;20035;-66
2021/03/21 00:28:49;;;;;;;13.25;2.38;;;;;;;4.36;74.70;99578.16;5120639;28;20047;-64
2021/03/21 00:31:15;;;;;;;16.15;2.10;;;;;;;4.35;74.73;99587.56;5105355;28;20024;-66
2021/03/21 00:33:41;;;;;;;25.13;4.32;;;;;;;4.31;74.75;99578.16;5105208;28;20036;-64
2021/03/21 00:36:10;;;;;;;17.83;3.28;;;;;;;4.29;74.74;99574.72;5105485;28;20024;-65
2021/03/21 00:38:39;;;;;;;13.63;2.42;;;;;;;4.26;74.76;99579.84;5105135;28;20079;-65
2021/03/21 00:41:06;;;;;;;15.98;2.85;;;;;;;4.21;74.87;99572.97;5105482;28;20016;-65
2021/03/21 00:43:32;;;;;;;15.93;2.45;;;;;;;4.19;74.91;99582.38;5104898;28;20531;-66
2021/03/21 00:45:57;;;;;;;17.45;2.47;;;;;;;4.19;74.89;99584.94;5104975;28;20044;-65
2021/03/21 00:48:29;;;;;;;11.70;2.22;;;;;;;4.18;74.81;99585.81;5104925;28;20028;-64
2021/03/21 00:50:56;;;;;;;11.15;2.38;;;;;;;4.17;74.65;99586.66;5105121;28;20024;-66
2021/03/21 00:53:21;;;;;;;14.73;2.38;;;;;;;4.19;74.78;99595.22;5104750;28;20028;-65
2021/03/21 00:55:47;;;;;;;7.70;2.10;;;;;;;4.19;74.80;99595.22;5104528;28;20422;-65
2021/03/21 00:58:13;;;;;;;15.13;2.78;;;;;;;4.18;74.72;99592.66;5104328;28;20182;-64
2021/03/21 01:00:48;;;;;;;8.20;1.92;;;;;;;4.19;74.67;99599.50;5104620;28;20044;-65
2021/03/21 01:03:14;;;;;;;17.48;2.70;;;;;;;4.18;74.68;99608.06;5104688;28;20029;-66
2021/03/21 01:06:03;;;;;;;13.15;2.15;;;;;;;4.16;74.75;99609.75;5104525;28;20028;-65
2021/03/21 01:08:32;;;;;;;12.52;2.03;;;;;;;4.17;74.60;99611.50;5104140;28;20091;-65
2021/03/21 01:11:02;;;;;;;8.23;1.92;;;;;;;4.08;74.58;99613.16;5104582;28;20053;-64
2021/03/21 01:13:28;;;;;;;14.02;2.97;;;;;;;4.08;74.71;99625.13;5104441;28;20027;-65
2021/03/21 01:15:54;;;;;;;11.40;3.00;;;;;;;4.09;74.70;99629.41;5104537;28;20020;-66
2021/03/21 01:18:31;;;;;;;13.88;2.67;;;;;;;4.07;74.51;99636.28;5104379;28;20047;-65
2021/03/21 01:20:58;;;;;;;14.73;3.88;;;;;;;4.08;74.41;99640.56;5104292;28;20020;-65
2021/03/21 01:23:23;;;;;;;9.43;3.30;;;;;;;4.03;74.61;99645.66;5104015;28;20148;-64
2021/03/21 01:25:49;;;;;;;13.38;3.78;;;;;;;3.99;74.53;99638.81;5104296;28;20050;-65
2021/03/21 01:28:36;;;;;;;15.45;2.22;;;;;;;4.00;74.40;99647.34;5103859;28;20032;-65
2021/03/21 01:31:06;;;;;;;11.13;2.97;;;;;;;3.99;74.38;99650.78;5104298;28;20460;-65
2021/03/21 01:33:32;;;;;;;10.95;2.03;;;;;;;3.94;74.59;99636.22;5104156;28;20045;-65
2021/03/21 01:35:58;;;;;;;9.98;1.88;;;;;;;3.91;74.58;99636.19;5104072;28;20027;-65
2021/03/21 01:38:24;;;;;;;11.30;2.15;;;;;;;3.95;74.72;99639.59;5103853;28;20024;-64
2021/03/21 01:40:54;;;;;;;8.05;1.55;;;;;;;3.95;74.91;99644.75;5103450;28;20059;-65
2021/03/21 01:43:28;;;;;;;14.98;2.45;;;;;;;3.95;74.87;99643.06;5103713;28;20133;-65
2021/03/21 01:45:53;;;;;;;14.45;2.22;;;;;;;3.94;74.69;99641.34;5103860;28;20252;-64
2021/03/21 01:48:33;;;;;;;9.02;3.47;;;;;;;3.93;74.63;99659.31;5103590;28;20055;-65
2021/03/21 01:51:00;;;;;;;11.60;1.73;;;;;;;3.92;74.61;99668.72;5103769;28;20483;-65
2021/03/21 01:53:28;;;;;;;14.63;2.00;;;;;;;3.91;74.83;99667.00;5103769;28;20111;-65
2021/03/21 01:55:55;;;;;;;16.23;3.03;;;;;;;3.90;74.77;99682.41;5103663;28;20086;-64
2021/03/21 01:58:23;;;;;;;7.90;1.63;;;;;;;3.89;74.69;99696.94;5103433;28;20049;-64
2021/03/21 02:00:52;;;;;;;6.22;1.45;;;;;;;3.88;74.69;99705.50;5103585;28;20024;-64
2021/03/21 02:03:18;;;;;;;10.77;1.98;;;;;;;3.88;74.70;99722.63;5103735;28;20103;-64
2021/03/21 02:05:43;;;;;;;8.75;1.83;;;;;;;3.83;74.76;99718.28;5103598;28;20384;-64
2021/03/21 02:08:24;;;;;;;14.95;2.03;;;;;;;3.81;74.65;99737.09;5104980;28;20031;-64
2021/03/21 02:11:05;;;;;;;11.60;2.80;;;;;;;3.76;74.84;99726.78;5105681;28;20032;-64
2021/03/21 02:13:44;;;;;;;8.93;1.52;;;;;;;3.75;74.67;99742.19;5105302;28;20028;-65
2021/03/21 02:16:17;;;;;;;13.80;2.00;;;;;;;3.68;74.70;99731.00;5105752;28;20023;-64
2021/03/21 02:19:06;;;;;;;8.80;2.17;;;;;;;3.71;74.74;99734.47;5105536;28;20020;-65
2021/03/21 02:21:44;;;;;;;11.40;2.40;;;;;;;3.70;74.59;99727.63;5102484;28;20035;-65
2021/03/21 02:24:33;;;;;;;5.80;1.30;;;;;;;3.75;73.78;99722.50;5105528;28;20097;-66
2021/03/21 02:27:27;;;;;;;3.08;1.17;;;;;;;3.88;72.63;99712.34;5105523;28;20020;-67
2021/03/21 02:30:26;;;;;;;5.38;1.80;;;;;;;3.95;71.76;99735.50;5105285;28;20040;-66
2021/03/21 02:33:02;;;;;;;3.15;1.10;;;;;;;4.00;71.46;99734.69;5101113;28;20032;-65
2021/03/21 02:35:46;;;;;;;3.55;1.25;;;;;;;4.03;70.98;99742.41;5105622;28;20032;-66
2021/03/21 02:38:28;;;;;;;5.63;1.20;;;;;;;4.00;71.09;99750.09;5105586;28;20012;-66
2021/03/21 02:41:00;;;;;;;7.97;2.00;;;;;;;3.95;70.84;99750.91;5105873;28;20048;-64
2021/03/21 02:43:38;;;;;;;3.08;1.13;;;;;;;3.93;71.08;99750.03;5105255;28;20027;-66
2021/03/21 02:46:09;;;;;;;3.05;1.33;;;;;;;3.96;71.17;99767.19;5104009;28;20545;-65
2021/03/21 02:48:42;;;;;;;9.30;1.75;;;;;;;3.98;71.17;99760.34;5105191;28;20020;-65
2021/03/21 02:51:12;;;;;;;4.15;1.75;;;;;;;3.99;70.87;99762.09;5105434;28;20184;-67
2021/03/21 02:53:48;;;;;;;6.90;1.40;;;;;;;4.02;70.42;99762.13;5105365;28;20050;-66
2021/03/21 02:56:22;;;;;;;5.10;1.30;;;;;;;4.08;69.24;99761.28;5105455;28;20038;-66
2021/03/21 02:58:52;;;;;;;4.70;0.90;;;;;;;4.10;68.18;99754.47;5105091;28;20024;-66
2021/03/21 03:01:22;;;;;;;4.53;0.80;;;;;;;4.10;67.26;99775.00;5105406;28;20024;-68
2021/03/21 03:03:51;;;;;;;1.40;0.82;;;;;;;4.18;65.97;99772.50;5105372;28;20027;-66
2021/03/21 03:06:25;;;;;;;1.17;0.80;;;;;;;4.12;65.47;99749.34;5105210;28;20031;-66
2021/03/21 03:08:56;;;;;;;2.25;1.27;;;;;;;4.14;63.96;99776.75;5105165;28;20032;-65
2021/03/21 03:12:01;;;;;;;1.83;0.63;;;;;;;4.16;63.11;99774.19;5105386;28;20447;-65
2021/03/21 03:14:34;;;;;;;1.80;1.10;;;;;;;4.13;62.54;99785.31;5082221;28;20150;-66
2021/03/21 03:17:03;;;;;;;1.58;0.57;;;;;;;4.12;61.61;99786.13;5082559;28;20039;-65
2021/03/21 03:19:36;;;;;;;2.42;0.60;;;;;;;4.12;61.53;99782.72;5086075;28;20028;-64
2021/03/21 03:22:05;;;;;;;2.90;0.80;;;;;;;4.08;61.06;99802.38;5086256;28;20087;-66
2021/03/21 03:24:47;;;;;;;2.45;0.80;;;;;;;4.03;60.56;99796.34;5086058;28;20043;-65
2021/03/21 03:27:23;;;;;;;2.03;0.88;;;;;;;4.04;59.45;99787.81;5086180;28;20488;-64
2021/03/21 03:29:57;;;;;;;2.55;0.95;;;;;;;4.00;58.87;99796.31;5085911;28;20068;-64
2021/03/21 03:32:24;;;;;;;3.97;0.75;;;;;;;3.96;58.17;99792.88;5086440;28;20043;-65
2021/03/21 03:34:55;;;;;;;4.20;0.85;;;;;;;3.95;57.64;99788.56;5085932;28;20059;-66
2021/03/21 03:37:22;;;;;;;1.65;0.60;;;;;;;3.91;57.38;99803.13;5086018;28;20083;-64
2021/03/21 03:39:47;;;;;;;1.80;0.77;;;;;;;3.88;57.38;99810.78;5085588;28;20028;-65
2021/03/21 03:42:27;;;;;;;1.85;0.88;;;;;;;3.84;57.01;99815.03;5069227;28;20086;-66
2021/03/21 03:44:58;;;;;;;1.17;0.73;;;;;;;3.83;56.60;99821.00;5085550;28;20070;-66
2021/03/21 03:47:37;;;;;;;2.83;0.70;;;;;;;3.79;56.64;99841.50;5085829;28;20036;-65
2021/03/21 03:50:20;;;;;;;3.55;0.75;;;;;;;3.72;56.26;99844.00;5098507;28;20072;-64
2021/03/21 03:53:23;;;;;;;1.63;0.80;;;;;;;3.65;55.38;99839.66;5108450;28;20024;-65
2021/03/21 03:55:57;;;;;;;1.00;0.60;;;;;;;3.57;55.27;99852.41;5108092;28;20073;-65
2021/03/21 03:58:37;;;;;;;0.95;0.52;;;;;;;3.53;54.98;99857.50;5107901;28;20040;-64
2021/03/21 04:01:13;;;;;;;0.85;0.75;;;;;;;3.52;54.74;99853.19;5108281;28;20482;-66
2021/03/21 04:03:57;;;;;;;1.02;0.75;;;;;;;3.47;54.40;99854.00;5107938;28;20054;-63
2021/03/21 04:06:36;;;;;;;1.42;0.70;;;;;;;3.43;54.24;99862.53;5107979;28;20024;-65
2021/03/21 04:09:17;;;;;;;0.98;0.70;;;;;;;3.40;53.94;99871.88;5107777;28;20028;-64
2021/03/21 04:11:53;;;;;;;4.47;0.90;;;;;;;3.33;52.86;99878.63;5107855;28;20073;-65
2021/03/21 04:14:31;;;;;;;0.85;0.68;;;;;;;3.27;53.51;99883.69;5107646;28;20026;-65
2021/03/21 04:17:24;;;;;;;3.97;1.75;;;;;;;3.24;53.65;99894.78;5107963;28;20071;-65
2021/03/21 04:19:59;;;;;;;1.20;0.68;;;;;;;3.17;53.89;99903.22;5107628;28;20031;-64
2021/03/21 04:22:31;;;;;;;1.00;0.80;;;;;;;3.09;54.00;99911.69;5107783;28;20073;-65
2021/03/21 04:25:03;;;;;;;2.35;0.80;;;;;;;3.02;53.21;99919.28;5107567;28;20020;-63
2021/03/21 04:27:44;;;;;;;2.55;0.60;;;;;;;2.98;53.27;99920.91;5107553;28;20027;-64
2021/03/21 04:30:27;;;;;;;0.90;0.68;;;;;;;2.92;53.60;99925.97;5106724;28;20048;-65
2021/03/21 04:32:54;;;;;;;1.25;0.65;;;;;;;2.88;53.34;99930.16;5107513;28;20028;-65
2021/03/21 04:35:29;;;;;;;3.65;0.85;;;;;;;2.82;53.28;99935.19;5107132;28;20487;-66
2021/03/21 04:37:59;;;;;;;0.88;0.70;;;;;;;2.78;52.97;99941.97;5107360;28;20063;-65
2021/03/21 04:40:27;;;;;;;1.00;0.63;;;;;;;2.77;52.65;99949.63;5122698;28;20024;-65
2021/03/21 04:42:57;;;;;;;0.90;0.60;;;;;;;2.72;52.72;99955.56;5106985;28;20024;-64
2021/03/21 04:45:28;;;;;;;1.75;0.80;;;;;;;2.71;52.85;99955.53;5107177;28;20048;-66
2021/03/21 04:47:58;;;;;;;2.03;0.93;;;;;;;2.66;52.68;99965.72;5106983;28;20050;-65
2021/03/21 04:50:23;;;;;;;1.85;0.85;;;;;;;2.63;53.16;99962.22;5122673;28;20061;-65
2021/03/21 04:52:58;;;;;;;1.42;0.75;;;;;;;2.59;53.22;99966.44;5106945;28;20079;-65
2021/03/21 04:55:41;;;;;;;0.60;0.60;;;;;;;2.59;53.09;99975.00;5106756;28;20020;-64
2021/03/21 04:58:25;;;;;;;1.17;0.80;;;;;;;2.57;52.46;99989.47;5106463;28;20028;-64
2021/03/21 05:00:51;;;;;;;2.85;0.60;;;;;;;2.59;52.36;99986.94;5106506;28;20051;-66
2021/03/21 05:03:27;;;;;;;1.55;0.77;;;;;;;2.60;52.85;99983.56;5105308;28;20023;-66
2021/03/21 05:06:00;;;;;;;0.88;0.70;;;;;;;2.55;52.56;99977.47;5106569;28;20016;-66
2021/03/21 05:08:29;;;;;;;2.00;0.85;;;;;;;2.58;52.62;99990.34;5106226;28;20042;-64
2021/03/21 05:11:02;;;;;;;1.10;0.80;;;;;;;2.63;52.12;99993.00;5106414;28;20038;-66
2021/03/21 05:13:33;;;;;;;1.63;0.57;;;;;;;2.66;52.09;99998.16;5106410;28;20045;-65
2021/03/21 05:16:36;;;;;;;0.80;0.70;;;;;;;2.75;51.69;100002.59;5122207;28;20058;-65
2021/03/21 05:19:25;;;;;;;2.80;0.98;;;;;;;2.75;51.31;100008.56;5106404;28;20483;-64
2021/03/21 05:21:57;;;;;;;1.27;0.98;;;;;;;2.88;51.66;100003.66;5106242;28;20197;-64
2021/03/21 05:24:48;;;;;;;0.95;0.80;;;;;;;3.01;51.51;99990.22;5106073;28;20054;-64
2021/03/21 05:27:23;;;;;;;2.13;1.35;;;;;;;3.21;51.24;99990.50;5122010;28;20050;-65
2021/03/21 05:30:11;;;;;;;1.35;1.23;;;;;;;3.49;51.16;99996.88;5105853;28;20024;-64
2021/03/21 05:32:37;;;;;;;1.27;1.00;;;;;;;3.82;50.20;99993.03;5105879;28;20039;-64
2021/03/21 05:35:06;;;;;;;1.50;0.70;;;;;;;4.06;50.28;99994.19;5106063;28;20076;-63
2021/03/21 05:37:49;;;;;;;1.17;0.98;;;;;;;4.31;49.26;100004.75;5106124;28;20020;-64
2021/03/21 05:40:23;;;;;;;1.55;0.82;;;;;;;4.54;47.91;100019.53;5105735;28;20023;-64
2021/03/21 05:43:06;;;;;;;1.85;1.02;;;;;;;4.64;46.79;100036.78;5105326;28;20028;-63
2021/03/21 05:45:56;;;;;;;2.47;1.10;;;;;;;4.81;47.39;100052.38;5105875;28;20052;-65
2021/03/21 05:48:40;;;;;;;3.28;0.85;;;;;;;5.11;46.89;100051.78;5105862;28;20020;-67
2021/03/21 05:51:39;;;;;;;1.17;0.80;;;;;;;5.28;45.92;100068.22;5105923;28;20079;-64
2021/03/21 05:54:43;;;;;;;3.63;0.98;;;;;;;5.59;45.00;100057.31;5106147;28;20019;-64
2021/03/21 05:57:45;;;;;;;2.63;1.00;;;;;;;5.86;44.62;100055.72;5083533;28;20139;-66
2021/03/21 06:00:36;;;;;;;3.78;1.17;;;;;;;6.10;44.26;100069.63;5083314;28;20416;-65
2021/03/21 06:03:33;;;;;;;1.60;0.98;;;;;;;6.51;43.66;100080.94;5083535;28;20035;-66
2021/03/21 06:06:24;;;;;;;3.67;0.82;;;;;;;6.71;42.20;100087.03;5083341;28;20048;-65
2021/03/21 06:09:19;;;;;;;2.15;0.90;;;;;;;7.02;40.31;100084.47;5067873;28;20189;-67
2021/03/21 06:12:12;;;;;;;1.75;0.93;;;;;;;7.13;39.77;100087.94;5083279;28;20448;-68
2021/03/21 06:14:58;;;;;;;2.55;1.30;;;;;;;7.29;39.96;100096.56;5083225;28;20119;-66
2021/03/21 06:17:50;;;;;;;1.40;0.70;;;;;;;7.41;38.64;100098.25;5083560;28;20183;-67
2021/03/21 06:20:40;;;;;;;2.22;0.60;;;;;;;7.58;37.95;100105.16;5083299;28;20044;-67
2021/03/21 06:23:24;;;;;;;2.60;1.00;;;;;;;7.78;38.05;100122.38;5083392;28;20039;-66
2021/03/21 06:26:15;;;;;;;1.38;0.47;;;;;;;8.15;39.14;100109.34;5083215;28;20096;-67
2021/03/21 06:29:04;;;;;;;6.82;1.48;;;;;;;8.90;38.49;100119.38;5082817;28;20028;-66
2021/03/21 06:31:47;;;;;;;4.72;1.60;;;;;;;9.75;38.75;100118.72;5083221;28;20028;-66
2021/03/21 06:34:15;;;;;;;2.65;0.80;;;;;;;10.20;37.13;100126.03;5105551;28;20031;-66
2021/03/21 06:36:51;;;;;;;3.75;0.75;;;;;;;10.11;35.44;100137.34;5105650;28;20032;-67
2021/03/21 06:39:31;;;;;;;2.22;0.98;;;;;;;9.73;35.55;100123.06;5105559;28;20129;-67
2021/03/21 06:42:02;;;;;;;1.75;0.80;;;;;;;9.47;36.36;100129.34;5105802;28;20106;-68
2021/03/21 06:45:01;;;;;;;2.45;0.70;;;;;;;9.27;34.98;100131.22;5105620;28;20065;-67
2021/03/21 06:48:01;;;;;;;1.48;0.80;;;;;;;9.03;36.18;100129.66;5105645;28;20158;-67
2021/03/21 06:50:51;;;;;;;3.65;0.88;;;;;;;9.31;35.23;100139.84;5105676;28;20087;-67
2021/03/21 06:53:30;;;;;;;1.55;0.65;;;;;;;9.82;35.31;100141.13;5107814;28;20020;-67
2021/03/21 06:55:58;;;;;;;0.65;0.55;;;;;;;10.35;34.06;100145.75;5109705;28;20031;-67
2021/03/21 06:58:54;;;;;;;1.10;0.68;;;;;;;10.75;35.14;100152.19;5109504;28;20016;-66
2021/03/21 07:01:47;;;;;;;0.70;0.50;;;;;;;11.10;33.40;100155.19;5109492;28;20031;-67
2021/03/21 07:04:58;;;;;;;4.40;1.08;;;;;;;11.22;32.71;100143.75;5109571;28;20049;-66
2021/03/21 07:07:55;;;;;;;2.30;0.70;;;;;;;11.65;33.01;100134.41;5109543;28;20024;-67
2021/03/21 07:11:02;;;;;;;2.05;0.73;;;;;;;11.76;30.94;100169.75;5109290;28;20066;-66
2021/03/21 07:13:36;;;;;;;2.55;0.80;;;;;;;11.63;30.80;100159.56;5109158;28;20537;-68
2021/03/21 07:16:16;;;;;;;2.20;0.52;;;;;;;11.07;30.59;100170.81;5109489;28;20024;-69
2021/03/21 07:18:57;;;;;;;4.28;0.70;;;;;;;10.56;31.64;100195.72;5109130;28;20020;-68
2021/03/21 07:21:34;;;;;;;1.85;0.55;;;;;;;10.53;32.53;100181.03;5109210;28;20034;-68
2021/03/21 07:24:32;;;;;;;2.65;0.70;;;;;;;10.63;33.06;100199.09;5109183;28;20077;-67
2021/03/21 07:27:22;;;;;;;1.65;0.70;;;;;;;10.55;32.49;100199.19;5086298;28;20067;-67
2021/03/21 07:30:12;;;;;;;2.13;0.75;;;;;;;10.25;32.66;100190.84;5086366;28;20472;-67
2021/03/21 07:32:52;;;;;;;3.38;0.88;;;;;;;10.44;33.87;100203.59;5086461;28;20035;-67
2021/03/21 07:35:45;;;;;;;3.58;1.02;;;;;;;10.73;33.30;100223.22;5086078;28;20075;-67
2021/03/21 07:38:16;;;;;;;6.07;1.35;;;;;;;10.95;32.85;100228.13;5086121;28;20036;-67
2021/03/21 07:40:50;;;;;;;4.28;0.80;;;;;;;11.12;33.14;100233.97;5069264;28;20189;-66
2021/03/21 07:43:46;;;;;;;2.22;1.00;;;;;;;11.44;32.00;100236.16;5085925;28;20179;-65
2021/03/21 07:46:20;;;;;;;1.58;0.60;;;;;;;11.83;31.65;100232.94;5086000;28;20057;-70
2021/03/21 07:49:03;;;;;;;1.52;0.80;;;;;;;12.02;30.33;100223.09;5085990;28;20039;-68
2021/03/21 07:51:47;;;;;;;1.27;0.50;;;;;;;11.88;30.82;100236.34;5085910;28;20040;-67
2021/03/21 07:54:36;;;;;;;3.30;0.80;;;;;;;11.86;30.91;100238.97;5085789;28;20044;-68
2021/03/21 07:57:23;;;;;;;2.10;0.80;;;;;;;12.00;30.38;100211.84;5085175;28;20064;-68
2021/03/21 07:59:50;;;;;;;1.92;0.80;;;;;;;11.72;30.23;100199.31;5085150;28;20067;-68
2021/03/21 08:02:22;;;;;;;2.40;0.52;;;;;;;11.26;29.86;100244.16;5086733;28;20035;-69
2021/03/21 08:04:48;;;;;;;2.42;0.82;;;;;;;11.02;31.37;100254.00;5105452;28;20024;-66
2021/03/21 08:07:23;;;;;;;2.28;0.82;;;;;;;11.08;30.99;100244.44;5108006;28;20035;-69
2021/03/21 08:09:49;;;;;;;6.22;0.80;;;;;;;11.01;30.62;100228.06;5107777;28;20024;-69
2021/03/21 08:12:17;;;;;;;2.83;0.93;;;;;;;10.62;30.65;100246.72;5107981;28;20048;-67
2021/03/21 08:15:25;;;;;;;3.33;1.75;;;;;;;10.62;31.87;100251.91;5107594;28;20024;-66
2021/03/21 08:18:02;;;;;;;6.82;1.40;;;;;;;10.90;31.25;100210.03;5101524;28;20525;-70
2021/03/21 08:20:32;;;;;;;2.13;0.82;;;;;;;10.66;30.94;100232.81;5107831;28;20048;-64
2021/03/21 08:23:15;;;;;;;2.05;0.77;;;;;;;10.63;31.31;100233.72;5107380;28;20024;-64
2021/03/21 08:25:41;;;;;;;2.42;0.65;;;;;;;10.87;31.18;100236.91;5107531;28;20031;-67
2021/03/21 08:28:11;;;;;;;3.55;1.33;;;;;;;10.81;29.87;100242.16;5107114;28;20103;-64
2021/03/21 08:30:58;;;;;;;1.13;0.70;;;;;;;10.50;29.76;100253.75;5107564;28;20495;-65
2021/03/21 08:33:34;;;;;;;0.77;0.50;;;;;;;10.25;29.27;100216.78;5107478;28;20055;-66
2021/03/21 08:36:14;;;;;;;2.03;0.73;;;;;;;10.06;29.90;100237.72;5107558;28;20047;-66
2021/03/21 08:38:49;;;;;;;4.63;0.75;;;;;;;9.99;30.15;100247.28;5107433;28;20072;-65
2021/03/21 08:41:15;;;;;;;3.20;0.70;;;;;;;10.30;30.63;100264.31;5107236;28;20020;-64
2021/03/21 08:43:41;;;;;;;4.15;0.98;;;;;;;10.70;29.71;100262.19;5106945;28;20035;-64
2021/03/21 08:46:14;;;;;;;3.17;0.77;;;;;;;10.94;29.38;100262.78;5107013;28;20068;-64
2021/03/21 08:48:41;;;;;;;4.85;1.20;;;;;;;11.20;28.22;100262.44;5106828;28;20020;-65
2021/03/21 08:51:12;;;;;;;2.78;0.80;;;;;;;11.23;28.66;100274.56;5106872;28;20024;-64
2021/03/21 08:53:38;;;;;;;1.25;0.60;;;;;;;11.64;28.25;100280.91;5107186;28;20028;-64
2021/03/21 08:56:11;;;;;;;1.30;0.80;;;;;;;12.05;27.31;100274.19;5107036;28;20030;-65
2021/03/21 08:58:37;;;;;;;4.85;0.75;;;;;;;12.07;26.70;100273.31;5106669;28;20024;-62
2021/03/21 09:01:22;;;;;;;2.13;0.63;;;;;;;11.90;26.54;100271.00;5106837;28;20380;-62
2021/03/21 09:03:49;;;;;;;2.95;0.80;;;;;;;12.27;26.54;100272.13;5106961;28;20103;-63
2021/03/21 09:06:35;;;;;;;2.33;0.70;;;;;;;13.02;26.60;100274.16;5106847;28;20492;-63
2021/03/21 09:09:14;;;;;;;2.03;0.70;;;;;;;13.79;25.78;100274.25;5106835;28;20048;-64
2021/03/21 09:11:39;;;;;;;8.63;1.10;;;;;;;14.36;25.15;100267.63;5106657;28;20051;-69
2021/03/21 09:14:05;;;;;;;5.85;1.20;;;;;;;15.03;24.42;100269.31;5106599;28;20090;-71
2021/03/21 09:16:54;;;;;;;1.15;0.57;;;;;;;15.75;23.79;100275.84;5122332;28;20024;-68
2021/03/21 09:19:25;;;;;;;3.25;0.77;;;;;;;15.60;22.13;100275.44;5106593;28;20204;-74
2021/03/21 09:21:51;;;;;;;1.35;0.50;;;;;;;15.07;21.56;100277.03;5122488;28;20031;-63
2021/03/21 09:24:22;;;;;;;2.00;0.70;;;;;;;14.57;22.54;100260.09;5106408;28;20035;-62
2021/03/21 09:26:49;;;;;;;2.37;0.60;;;;;;;14.84;22.89;100269.88;5106442;28;20087;-63
2021/03/21 09:29:34;;;;;;;1.42;0.60;;;;;;;15.25;22.09;100264.31;5106086;28;20024;-62
2021/03/21 09:32:16;;;;;;;4.18;1.10;;;;;;;15.41;21.68;100267.31;5106267;28;20024;-63
2021/03/21 09:35:16;;;;;;;1.67;0.70;;;;;;;15.80;21.95;100281.78;5106394;28;20032;-61
2021/03/21 09:37:42;;;;;;;2.97;0.70;;;;;;;16.03;20.51;100272.38;5083430;28;20056;-70
2021/03/21 09:40:10;;;;;;;2.47;0.68;;;;;;;15.51;21.36;100285.34;5083337;28;20036;-69
2021/03/21 09:42:36;;;;;;;1.55;0.50;;;;;;;15.33;20.92;100287.63;5083226;28;20048;-69
2021/03/21 09:45:03;;;;;;;1.50;0.50;;;;;;;14.96;21.43;100285.19;5082356;28;20067;-68
2021/03/21 09:47:38;;;;;;;2.00;0.70;;;;;;;14.67;21.92;100283.34;5083117;28;20044;-69
2021/03/21 09:50:21;;;;;;;2.22;0.60;;;;;;;14.93;22.82;100285.28;5083396;28;20107;-69
2021/03/21 09:52:57;;;;;;;2.10;0.70;;;;;;;15.04;20.26;100273.66;5083303;28;20025;-71
2021/03/21 09:55:43;;;;;;;2.50;0.40;;;;;;;14.19;20.70;100293.31;5083197;28;20044;-70
2021/03/21 09:58:39;;;;;;;3.22;0.68;;;;;;;14.00;20.33;100280.72;5083217;28;20024;-68
2021/03/21 10:01:20;;;;;;;4.75;0.60;;;;;;;13.99;20.45;100286.84;5083031;28;20036;-71
2021/03/21 10:03:53;;;;;;;4.95;0.80;;;;;;;13.88;20.53;100290.56;5083349;28;20029;-70
2021/03/21 10:06:25;;;;;;;2.80;0.77;;;;;;;13.92;20.70;100303.53;5082979;28;20048;-71
2021/03/21 10:08:56;;;;;;;;;;;;;;;14.38;21.38;100284.09;5083533;28;20039;-70
2021/03/21 10:11:42;;;;;;;0.90;0.50;;;;;;;14.79;19.86;100309.16;5082707;28;20021;-71
2021/03/21 10:14:28;;;;;;;2.00;0.60;;;;;;;14.95;20.17;100314.00;5102401;28;20067;-71
2021/03/21 10:16:59;;;;;;;2.25;0.70;;;;;;;14.91;18.96;100315.81;5105635;28;20456;-69
2021/03/21 10:19:56;;;;;;;4.57;0.77;;;;;;;14.24;19.19;100323.63;5105800;28;20027;-70
2021/03/21 10:22:21;;;;;;;1.25;0.60;;;;;;;14.16;20.31;100322.97;5105471;28;20072;-69
2021/03/21 10:24:49;;;;;;;2.58;1.08;;;;;;;14.53;21.31;100304.63;5105550;28;20028;-70
2021/03/21 10:27:14;;;;;;;2.85;1.25;;;;;;;15.05;21.43;100319.81;5105754;28;20071;-69
2021/03/21 10:29:39;;;;;;;5.53;1.13;;;;;;;15.69;21.88;100325.75;5109791;28;20062;-69
2021/03/21 10:32:26;;;;;;;3.28;0.85;;;;;;;16.65;21.14;100318.31;5109548;28;20038;-69
2021/03/21 10:34:53;;;;;;;3.35;1.15;;;;;;;17.56;20.73;100327.22;5109874;28;20032;-68
2021/03/21 10:37:40;;;;;;;3.50;1.08;;;;;;;17.14;18.85;100341.09;5109631;28;20035;-69
2021/03/21 10:40:10;;;;;;;3.63;1.13;;;;;;;16.75;20.10;100332.81;5109532;28;20095;-69
2021/03/21 10:42:46;;;;;;;1.60;0.80;;;;;;;17.36;19.49;100327.16;5109424;28;20024;-71
2021/03/21 10:45:33;;;;;;;2.60;0.80;;;;;;;17.89;19.79;100333.81;5109113;28;20051;-70
2021/03/21 10:48:01;;;;;;;5.70;1.02;;;;;;;18.11;18.67;100339.97;5109483;28;20075;-70
2021/03/21 10:50:27;;;;;;;1.42;0.50;;;;;;;17.83;17.00;100332.31;5109327;28;20031;-69
2021/03/21 10:53:17;;;;;;;2.70;0.70;;;;;;;17.15;18.46;100345.41;5109630;28;20112;-69
2021/03/21 10:56:05;;;;;;;4.28;0.82;;;;;;;17.55;19.10;100346.53;5109455;28;20028;-68
2021/03/21 10:58:33;;;;;;;3.88;0.73;;;;;;;17.94;17.92;100342.38;5124734;28;20024;-67
2021/03/21 11:01:21;;;;;;;12.45;1.60;;;;;;;17.80;17.46;100345.56;5109279;28;20040;-69
2021/03/21 11:04:17;;;;;;;4.10;1.13;;;;;;;17.98;17.88;100360.63;5109536;28;20059;-69
2021/03/21 11:06:59;;;;;;;2.08;0.82;;;;;;;17.21;17.18;100346.03;5108952;28;20020;-69
2021/03/21 11:09:31;;;;;;;1.63;0.80;;;;;;;16.55;17.51;100342.22;5109023;28;20035;-70
2021/03/21 11:11:57;;;;;;;2.10;0.77;;;;;;;15.79;18.40;100356.00;5109122;28;20449;-69
2021/03/21 11:14:25;;;;;;;3.38;1.00;;;;;;;15.76;18.64;100343.00;5108781;28;20464;-69
2021/03/21 11:16:54;;;;;;;4.03;0.80;;;;;;;15.89;18.61;100348.72;5109025;28;20020;-70
2021/03/21 11:19:21;;;;;;;4.95;1.42;;;;;;;16.20;18.75;100346.88;5109009;28;20073;-69
2021/03/21 11:21:47;;;;;;;3.97;0.93;;;;;;;16.02;19.21;100346.59;5108775;28;20111;-69
2021/03/21 11:24:21;;;;;;;4.05;1.10;;;;;;;15.75;18.78;100338.66;5109040;28;20039;-68
2021/03/21 11:26:47;;;;;;;2.08;0.80;;;;;;;15.24;19.30;100343.66;5108795;28;20020;-70
2021/03/21 11:29:28;;;;;;;4.82;1.20;;;;;;;15.45;20.33;100350.03;5108749;28;20066;-69
2021/03/21 11:31:59;;;;;;;5.68;1.00;;;;;;;16.13;20.46;100350.63;5108984;28;20020;-68
2021/03/21 11:34:35;;;;;;;3.03;0.88;;;;;;;16.97;19.44;100342.50;5109031;28;20035;-68
2021/03/21 11:37:03;;;;;;;3.67;1.00;;;;;;;17.62;19.39;100322.66;5108968;28;20015;-69
2021/03/21 11:39:53;;;;;;;8.40;1.27;;;;;;;18.04;18.55;100326.22;5108660;28;20020;-67
2021/03/21 11:42:18;;;;;;;6.00;1.42;;;;;;;18.01;17.89;100329.84;5107311;28;20440;-69
2021/03/21 11:44:44;;;;;;;8.65;1.45;;;;;;;18.09;18.16;100321.66;5108214;28;20476;-68
2021/03/21 11:47:25;;;;;;;3.67;1.02;;;;;;;17.40;18.23;100329.59;5108498;28;20049;-69
2021/03/21 11:49:51;;;;;;;3.47;1.05;;;;;;;15.93;19.14;100336.38;5108517;28;20096;-68
2021/03/21 11:52:18;;;;;;;4.05;1.45;;;;;;;14.28;19.63;100332.22;5108501;28;20115;-70
2021/03/21 11:54:44;;;;;;;3.95;1.10;;;;;;;12.73;21.66;100325.09;5108519;28;20159;-70
2021/03/21 11:57:13;;;;;;;4.57;1.20;;;;;;;11.65;22.84;100333.75;5108522;28;20028;-69
2021/03/21 11:59:53;;;;;;;4.28;1.05;;;;;;;10.86;24.02;100352.03;5108112;28;20051;-69
2021/03/21 12:02:40;;;;;;;6.25;1.10;;;;;;;10.27;25.53;100348.22;5108242;28;20050;-70
2021/03/21 12:05:12;;;;;;;2.25;0.88;;;;;;;10.12;25.81;100330.19;5108262;28;20024;-69
2021/03/21 12:07:38;;;;;;;6.05;1.92;;;;;;;10.07;26.10;100342.31;5108208;28;20020;-69
2021/03/21 12:10:05;;;;;;;3.30;1.17;;;;;;;9.97;26.67;100354.50;5108125;28;20021;-69
2021/03/21 12:12:41;;;;;;;7.63;1.13;;;;;;;9.84;26.37;100351.97;5108091;28;20026;-69
2021/03/21 12:15:14;;;;;;;2.15;0.80;;;;;;;9.60;26.74;100345.22;5107908;28;20543;-70